Time;durP1;ratioP1;P1;durP2;ratioP2;P2;SDS_P1;SDS_P2;PMS_P1;PMS_P2;Temp;Humidity;BMP_temperature;BMP_pressure;BME280_temperature;BME280_humidity;BME280_pressure;Samples;Min_cycle;Max_cycle;Signal;HPM_P1;HPM_P2
2020/12/02 00:00:23;;;;;;;34.73;18.53;;;8.90;80.80;;;;;;5069815;28;20072;-83
2020/12/02 00:03:02;;;;;;;34.30;20.03;;;8.90;80.90;;;;;;5088873;28;20072;-82
2020/12/02 00:05:31;;;;;;;34.40;19.83;;;8.90;80.40;;;;;;5069344;28;20487;-81
2020/12/02 00:08:08;;;;;;;34.40;20.57;;;8.90;80.40;;;;;;5037615;28;20069;-80
2020/12/02 00:10:34;;;;;;;32.53;19.00;;;8.90;81.00;;;;;;5089659;28;20050;-81
2020/12/02 00:13:00;;;;;;;37.00;21.87;;;8.90;80.70;;;;;;5049731;28;20042;-80
2020/12/02 00:15:27;;;;;;;36.13;21.00;;;8.90;80.50;;;;;;5064788;28;20039;-81
2020/12/02 00:17:57;;;;;;;38.57;21.13;;;8.90;80.20;;;;;;5081111;28;20400;-81
2020/12/02 00:20:43;;;;;;;34.13;21.67;;;8.90;79.40;;;;;;5080323;28;21503;-81
2020/12/02 00:23:09;;;;;;;33.93;19.80;;;8.80;79.10;;;;;;5084308;28;20043;-81
2020/12/02 00:25:35;;;;;;;35.53;21.67;;;8.80;79.30;;;;;;5055902;28;20059;-80
2020/12/02 00:28:03;;;;;;;36.40;20.33;;;8.70;79.40;;;;;;5070289;28;20113;-81
2020/12/02 00:30:28;;;;;;;36.93;21.77;;;8.70;79.40;;;;;;5081677;28;20637;-81
2020/12/02 00:32:54;;;;;;;35.90;21.93;;;8.70;79.40;;;;;;5083257;28;20055;-81
2020/12/02 00:35:40;;;;;;;33.63;19.90;;;8.70;79.60;;;;;;5072298;27;20040;-81
2020/12/02 00:38:06;;;;;;;40.47;21.90;;;8.70;80.00;;;;;;5064940;28;20372;-81
2020/12/02 00:40:33;;;;;;;33.37;21.00;;;8.70;79.80;;;;;;5069011;28;20040;-81
2020/12/02 00:42:59;;;;;;;36.57;21.63;;;8.70;79.90;;;;;;5066085;28;20031;-80
2020/12/02 00:45:25;;;;;;;40.27;21.57;;;8.70;80.00;;;;;;5085004;28;20082;-82
2020/12/02 00:48:13;;;;;;;37.37;20.57;;;8.70;80.80;;;;;;5083375;28;20115;-81
2020/12/02 00:50:39;;;;;;;38.13;22.00;;;8.70;79.90;;;;;;5065483;28;20035;-80
2020/12/02 00:53:13;;;;;;;37.00;22.43;;;8.70;79.90;;;;;;5079972;28;20395;-81
2020/12/02 00:55:58;;;;;;;35.20;21.37;;;8.70;79.70;;;;;;5065837;28;20071;-80
2020/12/02 00:58:58;;;;;;;37.67;21.60;;;8.70;80.40;;;;;;5074103;28;20326;-79
2020/12/02 01:01:36;;;;;;;39.30;22.63;;;8.70;79.40;;;;;;5070608;28;20043;-81
2020/12/02 01:04:02;;;;;;;39.77;21.83;;;8.70;79.90;;;;;;5082897;28;20040;-81
2020/12/02 01:06:49;;;;;;;41.10;23.30;;;8.70;80.30;;;;;;5075693;28;20448;-82
2020/12/02 01:09:16;;;;;;;39.33;22.40;;;8.60;80.00;;;;;;5064752;28;20087;-81
2020/12/02 01:11:43;;;;;;;39.37;24.33;;;8.70;80.30;;;;;;5089448;28;20486;-82
2020/12/02 01:14:11;;;;;;;40.10;24.87;;;8.70;80.30;;;;;;5073949;28;20036;-80
2020/12/02 01:16:42;;;;;;;40.10;23.10;;;8.80;80.10;;;;;;5087970;28;20112;-82
2020/12/02 01:19:19;;;;;;;38.23;23.40;;;8.70;80.40;;;;;;5081357;28;20111;-81
2020/12/02 01:22:12;;;;;;;39.37;24.37;;;8.70;80.20;;;;;;5091695;28;20063;-82
2020/12/02 01:25:04;;;;;;;37.80;23.07;;;8.70;80.20;;;;;;5101301;28;20039;-82
2020/12/02 01:27:34;;;;;;;37.87;22.83;;;8.70;80.20;;;;;;5077930;28;20449;-81
2020/12/02 01:29:59;;;;;;;39.63;22.73;;;8.70;80.30;;;;;;5070114;28;20032;-82
2020/12/02 01:32:25;;;;;;;38.43;22.57;;;8.70;80.20;;;;;;5081705;28;20118;-81
2020/12/02 01:35:13;;;;;;;37.37;23.43;;;8.70;80.30;;;;;;5057682;28;20488;-82
2020/12/02 01:37:41;;;;;;;37.00;23.00;;;9.10;80.20;;;;;;5090665;28;20065;-80
2020/12/02 01:40:31;;;;;;;42.80;24.43;;;8.60;80.00;;;;;;5058350;28;20044;-81
2020/12/02 01:43:02;;;;;;;36.90;23.03;;;8.60;79.30;;;;;;5083618;28;20023;-82
2020/12/02 01:45:34;;;;;;;35.97;21.97;;;8.60;79.60;;;;;;5060160;28;20050;-82
2020/12/02 01:48:36;;;;;;;36.00;22.57;;;8.70;79.80;;;;;;5109882;28;20053;-81
2020/12/02 01:51:33;;;;;;;35.73;22.17;;;8.60;80.10;;;;;;5021044;28;20471;-82
2020/12/02 01:54:09;;;;;;;36.23;22.37;;;8.60;80.20;;;;;;5067160;28;20127;-80
2020/12/02 01:56:47;;;;;;;36.03;21.93;;;8.60;80.60;;;;;;5065498;28;20087;-80
2020/12/02 01:59:22;;;;;;;33.63;22.87;;;8.60;80.70;;;;;;5081003;28;20031;-82
2020/12/02 02:01:54;;;;;;;34.37;22.47;;;8.60;80.60;;;;;;5087599;28;20424;-82
2020/12/02 02:04:55;;;;;;;36.77;23.10;;;8.60;80.40;;;;;;5074162;28;20043;-79
2020/12/02 02:07:25;;;;;;;35.53;22.70;;;8.60;80.30;;;;;;5086765;28;20487;-80
2020/12/02 02:09:53;;;;;;;38.23;22.97;;;8.60;80.20;;;;;;5080368;28;20107;-81
2020/12/02 02:12:43;;;;;;;37.03;23.13;;;8.60;80.30;;;;;;5073616;28;20028;-81
2020/12/02 02:15:40;;;;;;;35.70;22.50;;;8.60;80.10;;;;;;5071845;28;20111;-80
2020/12/02 02:18:17;;;;;;;33.97;22.97;;;8.60;80.30;;;;;;5105369;28;20043;-79
2020/12/02 02:20:46;;;;;;;36.90;21.77;;;8.60;80.20;;;;;;5068376;28;20081;-80
2020/12/02 02:23:13;;;;;;;36.80;22.33;;;8.50;80.40;;;;;;5075124;28;20042;-80
2020/12/02 02:25:41;;;;;;;36.93;21.80;;;8.60;80.70;;;;;;5082675;28;20118;-80
2020/12/02 02:28:27;;;;;;;37.13;21.43;;;8.60;80.70;;;;;;5071003;28;20195;-81
2020/12/02 02:30:53;;;;;;;34.70;22.53;;;8.60;80.50;;;;;;5078397;28;20018;-81
2020/12/02 02:33:19;;;;;;;33.50;20.93;;;8.60;80.60;;;;;;5102985;28;20043;-81
2020/12/02 02:35:44;;;;;;;32.40;19.50;;;8.60;80.10;;;;;;5086235;28;20094;-81
2020/12/02 02:38:30;;;;;;;31.20;19.47;;;8.60;80.20;;;;;;5069469;28;20050;-81
2020/12/02 02:41:16;;;;;;;34.00;20.03;;;8.60;80.20;;;;;;5074346;28;20039;-81
2020/12/02 02:43:42;;;;;;;31.53;17.53;;;8.60;80.40;;;;;;5055538;28;20032;-81
2020/12/02 02:46:27;;;;;;;37.27;20.53;;;8.60;80.10;;;;;;5073805;28;20043;-81
2020/12/02 02:48:53;;;;;;;33.93;19.20;;;8.50;80.10;;;;;;5056980;28;20096;-81
2020/12/02 02:51:39;;;;;;;31.83;18.70;;;8.60;80.20;;;;;;5064571;28;20047;-81
2020/12/02 02:54:24;;;;;;;34.60;19.83;;;8.50;80.10;;;;;;5062161;28;20035;-81
2020/12/02 02:56:50;;;;;;;35.00;18.77;;;8.50;80.30;;;;;;5079443;28;20139;-81
2020/12/02 02:59:16;;;;;;;35.67;19.13;;;8.50;80.30;;;;;;5060823;28;20127;-81
2020/12/02 03:01:42;;;;;;;34.13;19.93;;;8.50;79.50;;;;;;5084655;28;20058;-81
2020/12/02 03:04:28;;;;;;;39.77;21.73;;;8.50;80.00;;;;;;5072885;28;20047;-81
2020/12/02 03:06:54;;;;;;;37.30;21.93;;;8.40;79.80;;;;;;5087438;28;20040;-81
2020/12/02 03:09:20;;;;;;;36.67;21.47;;;8.40;79.60;;;;;;5072677;28;20024;-81
2020/12/02 03:12:06;;;;;;;42.30;23.10;;;8.40;80.20;;;;;;5063916;28;20036;-81
2020/12/02 03:14:52;;;;;;;37.47;21.57;;;8.40;79.80;;;;;;5064555;28;20556;-81
2020/12/02 03:17:19;;;;;;;36.13;19.63;;;8.40;79.90;;;;;;5069958;28;20072;-81
2020/12/02 03:20:32;;;;;;;37.97;20.60;;;8.40;80.30;;;;;;5074172;28;20043;-80
2020/12/02 03:22:57;;;;;;;38.80;21.10;;;8.40;80.30;;;;;;5088482;28;20051;-80
2020/12/02 03:25:27;;;;;;;40.30;20.30;;;8.40;80.50;;;;;;5073218;28;20032;-80
2020/12/02 03:27:53;;;;;;;38.40;21.93;;;8.40;80.40;;;;;;5067321;28;20062;-81
2020/12/02 03:30:18;;;;;;;38.70;21.73;;;8.40;80.50;;;;;;5086266;28;20056;-81
2020/12/02 03:32:44;;;;;;;38.00;22.20;;;8.40;80.80;;;;;;5081715;28;20678;-80
2020/12/02 03:35:10;;;;;;;40.63;22.93;;;8.50;80.50;;;;;;5072525;28;20028;-80
2020/12/02 03:37:36;;;;;;;48.97;23.53;;;8.40;80.50;;;;;;5070364;28;20117;-81
2020/12/02 03:40:03;;;;;;;50.53;24.77;;;8.50;80.50;;;;;;5079004;28;20024;-81
2020/12/02 03:42:29;;;;;;;71.70;24.07;;;8.40;80.30;;;;;;5069981;28;20061;-81
2020/12/02 03:44:55;;;;;;;51.10;24.47;;;8.40;80.60;;;;;;5101750;28;20039;-80
2020/12/02 03:47:40;;;;;;;59.87;25.83;;;8.40;80.20;;;;;;5074198;28;20042;-81
2020/12/02 03:50:08;;;;;;;59.03;25.67;;;8.40;80.50;;;;;;5086432;28;20032;-81
2020/12/02 03:52:33;;;;;;;49.07;23.87;;;8.40;80.70;;;;;;5086599;28;20485;-79
2020/12/02 03:55:19;;;;;;;54.13;26.03;;;8.40;81.50;;;;;;5065411;28;20035;-82
2020/12/02 03:57:45;;;;;;;45.20;24.80;;;8.40;80.90;;;;;;5074577;28;20050;-82
2020/12/02 04:00:11;;;;;;;49.37;24.37;;;8.40;80.90;;;;;;5104807;28;20074;-81
2020/12/02 04:02:57;;;;;;;52.77;24.13;;;8.40;81.00;;;;;;5064006;28;20036;-80
2020/12/02 04:05:42;;;;;;;56.57;25.20;;;8.50;81.00;;;;;;5072461;28;20075;-79
2020/12/02 04:08:08;;;;;;;51.20;24.53;;;8.50;81.10;;;;;;5102222;28;20052;-80
2020/12/02 04:10:34;;;;;;;49.43;23.33;;;8.50;81.20;;;;;;5107782;28;20031;-80
2020/12/02 04:12:59;;;;;;;48.83;26.20;;;8.50;81.30;;;;;;5071564;28;20028;-79
2020/12/02 04:15:25;;;;;;;48.70;23.27;;;8.50;81.30;;;;;;5087565;28;20040;-80
2020/12/02 04:17:51;;;;;;;48.10;24.93;;;8.50;81.20;;;;;;5108507;28;20023;-81
2020/12/02 04:20:18;;;;;;;50.50;24.87;;;8.60;81.00;;;;;;5073524;28;20039;-80
2020/12/02 04:22:48;;;;;;;53.97;23.57;;;8.70;80.90;;;;;;5068292;28;20162;-79
2020/12/02 04:25:14;;;;;;;51.30;24.73;;;8.50;80.60;;;;;;5073511;28;20411;-80
2020/12/02 04:27:40;;;;;;;50.87;24.93;;;8.50;80.80;;;;;;5088719;28;20067;-80
2020/12/02 04:30:26;;;;;;;42.97;22.83;;;8.50;81.00;;;;;;5062424;28;20035;-80
2020/12/02 04:33:11;;;;;;;38.73;21.73;;;8.90;81.20;;;;;;5061015;28;20519;-80
2020/12/02 04:35:38;;;;;;;40.80;23.00;;;8.60;80.80;;;;;;5103675;28;20127;-80
2020/12/02 04:38:04;;;;;;;51.33;24.80;;;8.50;80.30;;;;;;5073412;28;20062;-80
2020/12/02 04:40:32;;;;;;;44.53;23.23;;;8.50;79.90;;;;;;5078332;28;20036;-80
2020/12/02 04:43:29;;;;;;;42.13;21.43;;;8.40;80.40;;;;;;5056525;28;20043;-81
2020/12/02 04:45:55;;;;;;;43.40;23.57;;;8.40;79.90;;;;;;5073248;28;20040;-80
2020/12/02 04:48:23;;;;;;;37.60;21.90;;;8.40;80.40;;;;;;5073711;28;20387;-80
2020/12/02 04:51:14;;;;;;;41.40;22.77;;;8.40;80.60;;;;;;5072745;28;20047;-80
2020/12/02 04:53:42;;;;;;;39.50;22.60;;;8.40;80.40;;;;;;5074054;28;20031;-80
2020/12/02 04:56:28;;;;;;;46.37;24.67;;;8.40;80.60;;;;;;5073941;28;20064;-80
2020/12/02 04:58:54;;;;;;;45.37;24.03;;;8.40;79.80;;;;;;5082217;28;21130;-80
2020/12/02 05:01:51;;;;;;;55.80;23.57;;;8.40;80.20;;;;;;5076428;28;20497;-80
2020/12/02 05:04:27;;;;;;;39.73;22.73;;;8.40;80.20;;;;;;5086281;28;20065;-80
2020/12/02 05:07:05;;;;;;;42.30;23.10;;;8.40;80.50;;;;;;5070951;28;20027;-80
2020/12/02 05:09:32;;;;;;;42.77;22.73;;;8.40;80.50;;;;;;5085363;28;20058;-80
2020/12/02 05:12:00;;;;;;;44.33;23.37;;;8.40;80.60;;;;;;5060488;28;20131;-80
2020/12/02 05:14:32;;;;;;;43.37;23.27;;;8.40;80.40;;;;;;5082231;28;20198;-80
2020/12/02 05:17:21;;;;;;;38.40;21.73;;;8.40;80.30;;;;;;5056257;28;20032;-80
2020/12/02 05:20:02;;;;;;;45.77;23.67;;;8.40;80.60;;;;;;5081066;28;20028;-80
2020/12/02 05:22:28;;;;;;;40.37;21.87;;;8.40;81.20;;;;;;5072126;28;20035;-80
2020/12/02 05:25:33;;;;;;;43.47;22.17;;;8.40;80.80;;;;;;5051450;28;20081;-80
2020/12/02 05:28:26;;;;;;;47.13;23.83;;;8.40;80.80;;;;;;5068155;28;20055;-80
2020/12/02 05:31:07;;;;;;;39.30;22.63;;;8.40;80.70;;;;;;5088356;28;20040;-80
2020/12/02 05:33:54;;;;;;;42.80;23.07;;;8.40;80.20;;;;;;5048968;28;20077;-80
2020/12/02 05:36:24;;;;;;;46.47;23.90;;;8.30;80.40;;;;;;5076756;28;20044;-80
2020/12/02 05:38:56;;;;;;;47.00;23.17;;;8.30;80.10;;;;;;5084042;28;20031;-80
2020/12/02 05:41:22;;;;;;;50.03;22.63;;;8.30;80.50;;;;;;5063426;28;20364;-80
2020/12/02 05:44:05;;;;;;;38.73;21.77;;;8.30;80.90;;;;;;5072040;28;20031;-80
2020/12/02 05:46:44;;;;;;;43.33;23.03;;;8.30;81.00;;;;;;5086797;28;20047;-80
2020/12/02 05:49:49;;;;;;;42.87;23.70;;;8.40;80.90;;;;;;5080709;28;20051;-80
2020/12/02 05:52:31;;;;;;;53.10;22.00;;;8.30;80.60;;;;;;5086054;28;20080;-80
2020/12/02 05:55:01;;;;;;;42.53;21.47;;;8.40;80.90;;;;;;5087213;28;20036;-80
2020/12/02 05:57:27;;;;;;;44.80;23.87;;;8.40;81.10;;;;;;5064505;28;20060;-80
2020/12/02 06:00:13;;;;;;;44.13;22.63;;;8.40;80.60;;;;;;5073624;28;20044;-80
2020/12/02 06:03:10;;;;;;;47.07;23.33;;;8.40;80.70;;;;;;5064229;28;20056;-80
2020/12/02 06:05:35;;;;;;;47.70;23.80;;;8.30;80.50;;;;;;5100422;28;20060;-80
2020/12/02 06:08:02;;;;;;;44.77;23.40;;;8.30;80.40;;;;;;5072848;28;20078;-81
2020/12/02 06:10:44;;;;;;;45.70;23.43;;;8.40;80.60;;;;;;5070539;28;20064;-81
2020/12/02 06:13:47;;;;;;;44.50;22.67;;;8.30;80.70;;;;;;5090761;28;20040;-81
2020/12/02 06:16:15;;;;;;;43.30;20.97;;;8.30;80.70;;;;;;5099797;28;20032;-80
2020/12/02 06:18:41;;;;;;;45.80;22.67;;;8.30;81.00;;;;;;5085719;28;20690;-81
2020/12/02 06:21:18;;;;;;;48.47;23.77;;;8.30;81.20;;;;;;5072904;28;20035;-80
2020/12/02 06:23:55;;;;;;;49.37;23.73;;;8.40;81.20;;;;;;5080366;28;20032;-81
2020/12/02 06:26:56;;;;;;;52.53;23.77;;;8.40;81.20;;;;;;5054430;28;20491;-82
2020/12/02 06:29:26;;;;;;;55.50;24.70;;;8.40;81.00;;;;;;5029926;28;20059;-82
2020/12/02 06:32:01;;;;;;;56.63;25.20;;;8.40;81.00;;;;;;5089787;28;20052;-82
2020/12/02 06:34:48;;;;;;;52.83;23.63;;;8.30;80.50;;;;;;5052491;28;20445;-82
2020/12/02 06:37:33;;;;;;;54.33;23.37;;;8.30;80.80;;;;;;5046415;28;20085;-82
2020/12/02 06:40:19;;;;;;;52.40;23.27;;;8.30;81.10;;;;;;5090679;28;20133;-81
2020/12/02 06:42:45;;;;;;;54.93;24.20;;;8.30;81.20;;;;;;5066389;28;20031;-81
2020/12/02 06:45:31;;;;;;;55.00;22.70;;;8.30;81.10;;;;;;5105712;28;20046;-81
2020/12/02 06:48:03;;;;;;;61.87;26.37;;;8.30;81.20;;;;;;5087169;28;20410;-81
2020/12/02 06:50:31;;;;;;;57.50;23.10;;;8.30;81.20;;;;;;5070439;28;20086;-82
2020/12/02 06:53:17;;;;;;;57.63;25.57;;;8.30;81.40;;;;;;5082834;28;20028;-81
2020/12/02 06:55:44;;;;;;;59.53;26.23;;;8.40;81.30;;;;;;5065579;28;20058;-81
2020/12/02 06:58:14;;;;;;;61.30;23.13;;;8.30;81.40;;;;;;5065213;28;20380;-81
2020/12/02 07:00:48;;;;;;;63.73;25.20;;;8.40;81.50;;;;;;5101532;28;20036;-81
2020/12/02 07:03:39;;;;;;;57.53;23.20;;;8.40;81.60;;;;;;5061138;28;20040;-82
2020/12/02 07:06:28;;;;;;;71.97;26.70;;;8.40;81.80;;;;;;5065734;28;20127;-80
2020/12/02 07:09:15;;;;;;;66.60;25.40;;;8.40;81.20;;;;;;5071531;28;20050;-80
2020/12/02 07:11:51;;;;;;;55.27;23.23;;;8.40;81.40;;;;;;5086410;28;20032;-82
2020/12/02 07:14:40;;;;;;;62.33;24.93;;;8.30;81.40;;;;;;5055874;28;20087;-82
2020/12/02 07:17:26;;;;;;;63.83;23.67;;;8.40;81.40;;;;;;5064805;28;20059;-82
2020/12/02 07:20:13;;;;;;;66.07;25.27;;;8.30;81.60;;;;;;5068231;28;20449;-81
2020/12/02 07:22:52;;;;;;;64.47;25.00;;;8.30;81.50;;;;;;5050293;28;20043;-81
2020/12/02 07:25:18;;;;;;;68.13;25.20;;;8.30;81.60;;;;;;5065389;28;20035;-81
2020/12/02 07:27:45;;;;;;;74.57;28.07;;;8.30;81.70;;;;;;5058370;28;20050;-80
2020/12/02 07:30:30;;;;;;;62.90;24.93;;;8.30;81.40;;;;;;5072344;28;20052;-81
2020/12/02 07:32:55;;;;;;;65.07;24.80;;;8.30;81.40;;;;;;5085186;28;20042;-82
2020/12/02 07:35:41;;;;;;;63.53;25.73;;;8.30;81.80;;;;;;5068329;28;20044;-81
2020/12/02 07:38:11;;;;;;;56.47;24.80;;;8.30;81.70;;;;;;5075058;28;20035;-81
2020/12/02 07:40:38;;;;;;;52.30;22.20;;;8.30;81.80;;;;;;5085252;28;20028;-80
2020/12/02 07:43:23;;;;;;;57.73;25.10;;;8.40;81.90;;;;;;5104053;28;20032;-81
2020/12/02 07:45:49;;;;;;;63.17;24.17;;;8.30;81.50;;;;;;5088374;28;20086;-82
2020/12/02 07:48:19;;;;;;;65.33;27.93;;;8.30;81.80;;;;;;5092102;27;20035;-82
2020/12/02 07:50:47;;;;;;;63.37;27.13;;;8.30;81.70;;;;;;5077717;28;20560;-81
2020/12/02 07:53:25;;;;;;;52.60;22.90;;;8.40;81.60;;;;;;5044091;27;20047;-81
2020/12/02 07:56:13;;;;;;;58.83;23.53;;;8.40;81.70;;;;;;5080416;27;20055;-82
2020/12/02 07:58:42;;;;;;;71.07;27.87;;;8.40;81.80;;;;;;5073246;27;20027;-82
2020/12/02 08:01:37;;;;;;;67.73;26.47;;;8.40;81.60;;;;;;5082896;27;20053;-83
2020/12/02 08:04:21;;;;;;;74.53;26.90;;;8.40;81.60;;;;;;5092161;27;20063;-82
2020/12/02 08:06:56;;;;;;;67.70;26.70;;;8.30;81.70;;;;;;5108778;27;20111;-83
2020/12/02 08:09:22;;;;;;;76.40;28.83;;;8.30;81.80;;;;;;5090184;28;20472;-82
2020/12/02 08:12:01;;;;;;;77.47;30.50;;;8.40;82.10;;;;;;5103837;28;20036;-82
2020/12/02 08:14:32;;;;;;;71.97;28.37;;;8.40;82.00;;;;;;5083734;28;20151;-82
2020/12/02 08:17:09;;;;;;;79.37;30.13;;;8.40;82.00;;;;;;5076749;27;20479;-82
2020/12/02 08:19:58;;;;;;;80.13;28.33;;;8.40;81.90;;;;;;5081316;27;20044;-82
2020/12/02 08:22:34;;;;;;;69.53;26.27;;;8.40;82.10;;;;;;5076912;27;20038;-81
2020/12/02 08:25:30;;;;;;;60.00;23.40;;;8.40;82.10;;;;;;5081488;27;20047;-81
2020/12/02 08:28:19;;;;;;;67.83;24.93;;;8.40;82.10;;;;;;5083976;27;20491;-82
2020/12/02 08:31:27;;;;;;;60.20;24.43;;;8.30;82.10;;;;;;5087180;27;20039;-83
2020/12/02 08:34:11;;;;;;;46.20;20.63;;;8.40;82.20;;;;;;5078028;27;20076;-82
2020/12/02 08:37:21;;;;;;;56.13;22.23;;;8.40;82.10;;;;;;5075711;27;20048;-82
2020/12/02 08:39:51;;;;;;;54.23;22.63;;;8.50;82.10;;;;;;5074128;28;20035;-81
2020/12/02 08:42:30;;;;;;;59.47;24.40;;;8.40;82.10;;;;;;5060250;27;20050;-83
2020/12/02 08:45:16;;;;;;;44.07;21.50;;;8.40;81.80;;;;;;5071598;27;20089;-82
2020/12/02 08:47:42;;;;;;;48.07;22.27;;;8.40;81.60;;;;;;5074313;27;20056;-83
2020/12/02 08:50:15;;;;;;;44.60;21.50;;;8.40;81.60;;;;;;5072302;27;20033;-84
2020/12/02 08:53:00;;;;;;;55.03;23.23;;;8.30;81.60;;;;;;5068923;27;20124;-82
2020/12/02 08:55:26;;;;;;;51.40;23.63;;;8.40;81.70;;;;;;5079979;27;20040;-82
2020/12/02 08:58:12;;;;;;;83.23;25.43;;;8.40;81.60;;;;;;5070143;27;20050;-82
2020/12/02 09:00:37;;;;;;;57.17;25.37;;;8.50;81.80;;;;;;5084580;28;20028;-82
2020/12/02 09:03:26;;;;;;;47.93;23.00;;;8.40;81.70;;;;;;5069588;28;20039;-86
2020/12/02 09:05:57;;;;;;;;;;;8.40;81.80;;;;;;5054956;27;21229;-83
2020/12/02 09:08:43;;;;;;;53.67;23.03;;;8.40;82.20;;;;;;5085351;27;20443;-82
2020/12/02 09:11:09;;;;;;;54.53;25.57;;;8.40;82.30;;;;;;5082230;27;20038;-83
2020/12/02 09:13:35;;;;;;;52.10;24.77;;;8.40;82.10;;;;;;5082135;28;20043;-84
2020/12/02 09:16:01;;;;;;;51.40;25.07;;;8.50;82.70;;;;;;5110124;27;20095;-83
2020/12/02 09:18:47;;;;;;;56.57;24.93;;;8.60;82.10;;;;;;5049235;27;20040;-84
2020/12/02 09:21:12;;;;;;;51.80;25.23;;;8.60;82.10;;;;;;5085007;27;20032;-82
2020/12/02 09:23:38;;;;;;;53.87;25.63;;;8.60;81.60;;;;;;5092422;27;20041;-81
2020/12/02 09:26:04;;;;;;;48.73;24.97;;;8.60;81.40;;;;;;5084884;28;20167;-84
2020/12/02 09:28:49;;;;;;;51.90;23.77;;;8.60;81.40;;;;;;5093984;27;20043;-84
2020/12/02 09:31:17;;;;;;;49.70;23.97;;;8.60;82.30;;;;;;5065568;28;20047;-83
2020/12/02 09:33:43;;;;;;;54.23;24.73;;;8.60;81.90;;;;;;5081743;28;20032;-82
2020/12/02 09:36:29;;;;;;;45.07;20.90;;;8.60;81.20;;;;;;5068912;28;20051;-80
2020/12/02 09:38:54;;;;;;;44.17;22.13;;;8.60;81.20;;;;;;5081198;28;20084;-80
2020/12/02 09:41:45;;;;;;;42.33;22.00;;;8.60;81.10;;;;;;5082724;28;20036;-82
2020/12/02 09:44:30;;;;;;;42.10;21.43;;;8.50;80.80;;;;;;5068536;28;20732;-82
2020/12/02 09:47:17;;;;;;;42.10;22.50;;;8.50;81.00;;;;;;5083663;28;20040;-82
2020/12/02 09:49:44;;;;;;;39.50;21.00;;;8.50;81.30;;;;;;5066004;28;20150;-82
2020/12/02 09:52:10;;;;;;;38.90;21.07;;;8.50;81.30;;;;;;5106051;27;20427;-80
2020/12/02 09:54:44;;;;;;;42.17;21.67;;;8.50;81.30;;;;;;5082689;28;20498;-81
2020/12/02 09:57:29;;;;;;;38.15;20.05;;;8.60;81.20;;;;;;5103780;27;20060;-82
2020/12/02 09:59:56;;;;;;;40.60;21.57;;;8.50;80.70;;;;;;5082734;28;20107;-82
2020/12/02 10:02:50;;;;;;;37.17;19.17;;;8.60;81.00;;;;;;5083253;27;20036;-83
2020/12/02 10:05:38;;;;;;;37.13;19.50;;;8.50;81.00;;;;;;5086800;28;20188;-80
2020/12/02 10:08:04;;;;;;;36.43;19.73;;;8.50;81.30;;;;;;5096143;27;20035;-82
2020/12/02 10:10:38;;;;;;;40.37;20.00;;;8.50;81.40;;;;;;5096680;27;20403;-82
2020/12/02 10:13:46;;;;;;;39.67;20.97;;;8.50;81.30;;;;;;5081731;27;20420;-82
2020/12/02 10:16:25;;;;;;;44.47;21.17;;;8.60;81.40;;;;;;5102145;28;20040;-83
2020/12/02 10:19:34;;;;;;;45.57;21.80;;;8.50;81.20;;;;;;5083320;28;20138;-84
2020/12/02 10:22:33;;;;;;;54.00;23.63;;;8.50;81.40;;;;;;5070872;27;20092;-84
2020/12/02 10:25:35;;;;;;;45.90;22.50;;;8.60;81.40;;;;;;5080010;27;20589;-81
2020/12/02 10:28:23;;;;;;;47.20;22.60;;;8.50;81.30;;;;;;5079931;28;20046;-82
2020/12/02 10:31:22;;;;;;;45.77;21.40;;;8.50;81.30;;;;;;5098900;28;20122;-85
2020/12/02 10:33:54;;;;;;;69.40;22.40;;;8.60;81.60;;;;;;5064577;28;20044;-81
2020/12/02 10:36:23;;;;;;;43.70;21.57;;;8.60;81.70;;;;;;5081059;28;20109;-81
2020/12/02 10:38:52;;;;;;;52.57;23.70;;;8.60;81.70;;;;;;5080215;28;20118;-83
2020/12/02 10:41:59;;;;;;;53.67;22.60;;;8.60;81.80;;;;;;5078434;27;20173;-81
2020/12/02 10:44:46;;;;;;;76.73;24.13;;;8.70;81.60;;;;;;5081715;28;20055;-81
2020/12/02 10:47:50;;;;;;;46.03;22.97;;;8.60;81.50;;;;;;5091694;27;20490;-81
2020/12/02 10:50:17;;;;;;;55.40;23.50;;;8.60;81.70;;;;;;5099503;27;20058;-83
2020/12/02 10:52:46;;;;;;;59.63;25.37;;;8.60;81.80;;;;;;5084496;28;20081;-82
2020/12/02 10:55:32;;;;;;;66.80;25.73;;;8.60;81.70;;;;;;5071411;28;20077;-83
2020/12/02 10:58:03;;;;;;;56.30;24.50;;;8.70;81.70;;;;;;5065502;28;20052;-82
2020/12/02 11:00:31;;;;;;;47.27;22.03;;;8.70;81.70;;;;;;5079161;28;20564;-81
2020/12/02 11:03:21;;;;;;;64.60;24.13;;;8.60;81.60;;;;;;5066892;28;20040;-83
2020/12/02 11:06:12;;;;;;;54.23;22.10;;;8.70;81.50;;;;;;5073709;28;20097;-82
2020/12/02 11:08:59;;;;;;;54.13;24.83;;;8.60;81.60;;;;;;5100817;28;20036;-81
2020/12/02 11:11:38;;;;;;;51.83;21.57;;;8.60;81.50;;;;;;5098940;28;20024;-81
2020/12/02 11:14:45;;;;;;;50.33;23.50;;;8.60;81.80;;;;;;5074546;28;20205;-81
2020/12/02 11:18:00;;;;;;;55.77;25.13;;;8.60;81.80;;;;;;5103711;28;20161;-82
2020/12/02 11:20:29;;;;;;;;;;;8.60;81.50;;;;;;5068564;28;20079;-81
2020/12/02 11:23:07;;;;;;;51.10;22.60;;;8.60;82.10;;;;;;5073089;28;20405;-82
2020/12/02 11:25:44;;;;;;;50.77;23.47;;;8.60;82.20;;;;;;5072968;28;20040;-82
2020/12/02 11:28:39;;;;;;;48.43;23.70;;;8.60;82.00;;;;;;5062321;28;20599;-82
2020/12/02 11:31:45;;;;;;;48.90;22.80;;;8.70;82.30;;;;;;5059592;28;20055;-83
2020/12/02 11:34:40;;;;;;;51.37;22.57;;;8.70;81.90;;;;;;5071947;28;20039;-83
2020/12/02 11:37:23;;;;;;;46.47;21.63;;;8.70;82.00;;;;;;5083084;28;20028;-82
2020/12/02 11:40:10;;;;;;;39.40;17.73;;;8.70;81.70;;;;;;5067463;28;20067;-83
2020/12/02 11:43:00;;;;;;;52.97;26.13;;;8.70;81.90;;;;;;5090140;28;20035;-83
2020/12/02 11:45:39;;;;;;;44.50;22.13;;;8.80;81.90;;;;;;5068745;28;20048;-83
2020/12/02 11:48:17;;;;;;;46.73;22.17;;;8.80;81.80;;;;;;5030555;28;20083;-83
2020/12/02 11:50:49;;;;;;;51.60;22.47;;;8.90;81.40;;;;;;5083560;28;20097;-83
2020/12/02 11:53:37;;;;;;;48.90;22.73;;;8.90;81.20;;;;;;5068817;28;20080;-84
2020/12/02 11:56:03;;;;;;;49.87;22.63;;;8.90;80.50;;;;;;5088176;28;20541;-83
2020/12/02 11:58:29;;;;;;;54.70;23.93;;;8.80;80.90;;;;;;5054079;28;20048;-84
2020/12/02 12:01:04;;;;;;;49.87;23.10;;;8.80;80.80;;;;;;5083782;28;20036;-82
2020/12/02 12:03:49;;;;;;;51.23;23.63;;;8.80;81.00;;;;;;5069318;28;20103;-83
2020/12/02 12:06:22;;;;;;;77.03;24.37;;;8.80;81.10;;;;;;5081556;28;20036;-82
2020/12/02 12:09:12;;;;;;;81.00;25.07;;;8.90;81.20;;;;;;5076226;28;20065;-84
2020/12/02 12:12:02;;;;;;;50.33;23.47;;;8.90;81.20;;;;;;5063255;28;20044;-84
2020/12/02 12:14:54;;;;;;;115.37;64.33;;;8.80;81.30;;;;;;5050581;28;20491;-85
2020/12/02 12:17:27;;;;;;;60.30;31.10;;;8.90;81.20;;;;;;5082030;28;20050;-85
2020/12/02 12:20:17;;;;;;;59.30;25.40;;;8.90;81.20;;;;;;5093705;28;20035;-83
2020/12/02 12:22:46;;;;;;;50.40;26.83;;;8.90;80.90;;;;;;5064355;28;20043;-83
2020/12/02 12:25:17;;;;;;;44.17;22.50;;;8.90;81.10;;;;;;5057697;28;20051;-83
2020/12/02 12:28:06;;;;;;;44.63;21.50;;;8.90;81.00;;;;;;5060108;28;20044;-83
2020/12/02 12:30:32;;;;;;;50.90;25.13;;;8.90;81.10;;;;;;5056385;28;20385;-83
2020/12/02 12:33:24;;;;;;;46.43;22.70;;;8.90;81.00;;;;;;5077228;28;20461;-82
2020/12/02 12:36:05;;;;;;;49.27;24.17;;;9.00;81.00;;;;;;5067398;28;20048;-83
2020/12/02 12:38:46;;;;;;;43.97;21.17;;;8.90;80.70;;;;;;5072891;28;20070;-82
2020/12/02 12:41:38;;;;;;;43.67;21.37;;;8.90;81.00;;;;;;5092778;27;20052;-84
2020/12/02 12:44:28;;;;;;;45.90;22.17;;;8.90;81.20;;;;;;5089062;28;20054;-83
2020/12/02 12:47:16;;;;;;;43.40;21.67;;;8.90;81.00;;;;;;5106790;28;20106;-83
2020/12/02 12:49:41;;;;;;;46.83;21.80;;;8.90;81.00;;;;;;5087723;28;20040;-83
2020/12/02 12:52:31;;;;;;;53.37;22.70;;;8.90;81.10;;;;;;5058997;28;20043;-83
2020/12/02 12:55:16;;;;;;;42.17;19.63;;;8.90;80.90;;;;;;5085163;28;20061;-85
2020/12/02 12:57:46;;;;;;;48.97;22.73;;;8.90;81.00;;;;;;5087096;28;23672;-82
2020/12/02 13:00:12;;;;;;;42.13;20.83;;;8.90;81.50;;;;;;5052957;28;20037;-82
2020/12/02 13:02:38;;;;;;;45.73;24.20;;;9.00;81.00;;;;;;5055863;28;20056;-84
2020/12/02 13:05:04;;;;;;;46.43;21.47;;;8.90;80.70;;;;;;5064596;28;20047;-85
2020/12/02 13:07:38;;;;;;;41.50;20.83;;;9.00;80.90;;;;;;5051379;28;20464;-83
2020/12/02 13:10:23;;;;;;;48.50;22.00;;;9.00;81.50;;;;;;5067556;28;20036;-84
2020/12/02 13:13:30;;;;;;;46.85;22.70;;;9.00;80.90;;;;;;5082884;28;20115;-82
2020/12/02 13:16:03;;;;;;;50.43;22.73;;;9.00;81.10;;;;;;5078766;28;20072;-83
2020/12/02 13:19:09;;;;;;;51.87;23.27;;;9.00;81.20;;;;;;5066306;28;20046;-84
2020/12/02 13:21:56;;;;;;;51.63;23.27;;;9.00;81.20;;;;;;5054537;28;20052;-82
2020/12/02 13:25:01;;;;;;;51.13;23.27;;;9.00;81.40;;;;;;5050045;28;20452;-83
2020/12/02 13:27:58;;;;;;;44.80;22.00;;;9.00;81.40;;;;;;5084496;28;20143;-83
2020/12/02 13:30:57;;;;;;;54.63;24.30;;;9.00;81.30;;;;;;5080799;28;20054;-83
2020/12/02 13:33:28;;;;;;;48.70;22.33;;;8.90;81.20;;;;;;5082191;28;20093;-84